createdAt,value
2018-01-02T00:00:07.286Z,71.43
2018-01-02T00:02:34.888Z,54.90
2018-01-02T00:05:02.407Z,59.60
2018-01-02T00:07:29.948Z,61.53
2018-01-02T00:09:57.545Z,44.50
2018-01-02T00:12:25.062Z,43.53
2018-01-02T00:14:52.578Z,56.20
2018-01-02T00:17:20.142Z,47.40
2018-01-02T00:19:47.663Z,46.27
2018-01-02T00:22:15.233Z,49.53
2018-01-02T00:24:43.518Z,40.00
2018-01-02T00:27:11.134Z,52.40
2018-01-02T00:29:38.643Z,50.33
2018-01-02T00:32:06.163Z,52.37
2018-01-02T00:34:33.700Z,48.00
2018-01-02T00:37:01.317Z,41.20
2018-01-02T00:39:28.877Z,42.17
2018-01-02T00:41:56.415Z,52.73
2018-01-02T00:44:23.975Z,34.63
2018-01-02T00:46:51.527Z,35.43
2018-01-02T00:49:19.078Z,35.50
2018-01-02T00:51:46.685Z,36.00
2018-01-02T00:54:14.231Z,31.77
2018-01-02T00:56:41.767Z,28.90
2018-01-02T00:59:09.359Z,29.97
2018-01-02T01:01:36.920Z,30.77
2018-01-02T01:04:04.433Z,23.63
2018-01-02T01:06:31.959Z,17.07
2018-01-02T01:08:59.496Z,17.60
2018-01-02T01:11:27.034Z,22.40
2018-01-02T01:13:54.599Z,15.90
2018-01-02T01:16:22.251Z,23.40
2018-01-02T01:18:49.799Z,19.37
2018-01-02T01:21:17.367Z,23.70
2018-01-02T01:23:45.051Z,15.03
2018-01-02T01:26:12.588Z,13.10
2018-01-02T01:28:40.156Z,16.60
2018-01-02T01:31:07.694Z,12.60
2018-01-02T01:33:35.234Z,10.40
2018-01-02T01:36:02.842Z,17.43
2018-01-02T01:38:30.411Z,11.30
2018-01-02T01:40:57.914Z,12.73
2018-01-02T01:43:25.429Z,10.40
2018-01-02T01:45:53.009Z,16.13
2018-01-02T01:48:20.522Z,12.73
2018-01-02T01:50:48.070Z,21.13
2018-01-02T01:53:15.636Z,15.43
2018-01-02T01:55:43.151Z,19.53
2018-01-02T01:58:10.710Z,12.30
2018-01-02T02:00:38.220Z,12.80
2018-01-02T02:03:05.727Z,10.00
2018-01-02T02:05:33.296Z,13.03
2018-01-02T02:08:00.831Z,11.90
2018-01-02T02:10:28.348Z,7.77
2018-01-02T02:12:55.870Z,8.73
2018-01-02T02:15:23.437Z,11.27
2018-01-02T02:17:50.975Z,13.77
2018-01-02T02:20:18.584Z,12.60
2018-01-02T02:22:46.313Z,19.27
2018-01-02T02:25:14.091Z,15.20
2018-01-02T02:27:41.640Z,14.10
2018-01-02T02:30:09.239Z,12.13
2018-01-02T02:32:36.840Z,12.80
2018-01-02T02:35:04.382Z,14.47
2018-01-02T02:37:31.899Z,15.60
2018-01-02T02:39:59.483Z,18.03
2018-01-02T02:42:27.002Z,22.33
2018-01-02T02:44:54.540Z,29.40
2018-01-02T02:47:22.114Z,15.07
2018-01-02T02:49:49.623Z,18.77
2018-01-02T02:52:17.190Z,22.70
2018-01-02T02:54:44.724Z,26.40
2018-01-02T02:57:12.281Z,20.70
2018-01-02T02:59:39.849Z,21.43
2018-01-02T03:02:07.384Z,21.07
2018-01-02T03:04:34.890Z,19.07
2018-01-02T03:07:02.584Z,17.83
2018-01-02T03:09:30.105Z,27.83
2018-01-02T03:11:57.644Z,23.30
2018-01-02T03:14:25.155Z,21.53
2018-01-02T03:16:52.728Z,30.73
2018-01-02T03:19:20.226Z,15.93
2018-01-02T03:21:47.775Z,29.30
2018-01-02T03:24:15.366Z,29.70
2018-01-02T03:26:42.888Z,34.53
2018-01-02T03:29:10.466Z,30.67
2018-01-02T03:31:38.003Z,23.70
2018-01-02T03:34:05.610Z,24.53
2018-01-02T03:36:33.147Z,31.43
2018-01-02T03:39:00.705Z,32.23
2018-01-02T03:41:28.267Z,27.00
2018-01-02T03:43:55.807Z,31.13
2018-01-02T03:46:23.329Z,39.33
2018-01-02T03:48:50.891Z,29.23
2018-01-02T03:51:18.445Z,35.87
2018-01-02T03:53:46.015Z,45.57
2018-01-02T03:56:13.580Z,36.00
2018-01-02T03:58:41.119Z,54.43
2018-01-02T04:01:08.683Z,35.03
2018-01-02T04:03:36.231Z,41.10
2018-01-02T04:06:03.843Z,52.73
2018-01-02T04:08:31.398Z,40.87
2018-01-02T04:10:58.961Z,38.40
2018-01-02T04:13:26.503Z,34.33
2018-01-02T04:15:54.020Z,47.07
2018-01-02T04:18:21.613Z,42.33
2018-01-02T04:20:49.122Z,51.70
2018-01-02T04:23:16.634Z,47.53
2018-01-02T04:25:44.196Z,49.93
2018-01-02T04:28:11.755Z,51.87
2018-01-02T04:30:39.357Z,43.30
2018-01-02T04:33:06.905Z,41.90
2018-01-02T04:35:34.490Z,47.23
2018-01-02T04:38:02.107Z,45.40
2018-01-02T04:40:29.670Z,50.07
2018-01-02T04:42:57.245Z,41.67
2018-01-02T04:45:24.834Z,47.10
2018-01-02T04:47:52.396Z,47.00
2018-01-02T04:50:19.916Z,45.93
2018-01-02T04:52:47.457Z,49.23
2018-01-02T04:55:15.051Z,47.63
2018-01-02T04:57:42.627Z,33.67
2018-01-02T05:00:10.147Z,44.20
2018-01-02T05:02:37.794Z,39.20
2018-01-02T05:05:05.380Z,36.87
2018-01-02T05:07:33.252Z,43.00
2018-01-02T05:10:00.808Z,39.37
2018-01-02T05:12:28.338Z,29.97
2018-01-02T05:14:55.927Z,47.73
2018-01-02T05:17:23.439Z,35.77
2018-01-02T05:19:50.951Z,39.40
2018-01-02T05:22:18.594Z,36.57
2018-01-02T05:24:46.149Z,47.57
2018-01-02T05:27:13.695Z,50.40
2018-01-02T05:29:41.381Z,46.67
2018-01-02T05:32:09.201Z,38.70
2018-01-02T05:34:36.755Z,54.37
2018-01-02T05:37:04.275Z,41.20
2018-01-02T05:39:31.889Z,50.27
2018-01-02T05:41:59.466Z,52.17
2018-01-02T05:44:27.028Z,52.00
2018-01-02T05:46:54.604Z,39.70
2018-01-02T05:49:22.152Z,52.97
2018-01-02T05:51:49.685Z,42.60
2018-01-02T05:54:17.280Z,42.47
2018-01-02T05:56:44.827Z,48.50
2018-01-02T05:59:12.400Z,46.13
2018-01-02T06:01:40.110Z,31.17
2018-01-02T06:04:07.663Z,49.33
2018-01-02T06:06:35.188Z,41.27
2018-01-02T06:09:02.800Z,35.90
2018-01-02T06:11:30.383Z,36.57
2018-01-02T06:13:58.066Z,49.40
2018-01-02T06:16:25.587Z,38.17
2018-01-02T06:18:53.136Z,48.23
2018-01-02T06:21:20.749Z,43.40
2018-01-02T06:23:48.315Z,43.03
2018-01-02T06:26:15.831Z,40.43
2018-01-02T06:28:43.510Z,43.30
2018-01-02T06:31:11.078Z,49.33
2018-01-02T06:33:38.611Z,40.93
2018-01-02T06:36:06.234Z,49.23
2018-01-02T06:38:33.903Z,37.80
2018-01-02T06:41:01.445Z,54.40
2018-01-02T06:43:29.024Z,41.00
2018-01-02T06:45:56.548Z,53.70
2018-01-02T06:48:24.203Z,50.07
2018-01-02T06:50:51.736Z,40.40
2018-01-02T06:53:19.346Z,46.83
2018-01-02T06:55:46.913Z,48.10
2018-01-02T06:58:14.468Z,43.97
2018-01-02T07:00:42.057Z,40.97
2018-01-02T07:03:09.667Z,35.53
2018-01-02T07:05:37.201Z,52.37
2018-01-02T07:08:04.890Z,50.23
2018-01-02T07:10:32.486Z,37.60
2018-01-02T07:13:00.017Z,43.40
2018-01-02T07:15:27.539Z,43.33
2018-01-02T07:17:55.337Z,47.20
2018-01-02T07:20:22.892Z,41.03
2018-01-02T07:22:50.440Z,52.00
2018-01-02T07:25:18.061Z,50.13
2018-01-02T07:27:45.578Z,46.57
2018-01-02T07:30:13.142Z,47.63
2018-01-02T07:32:40.753Z,38.93
2018-01-02T07:35:08.308Z,40.57
2018-01-02T07:37:35.840Z,47.07
2018-01-02T07:40:03.552Z,42.20
2018-01-02T07:42:31.071Z,34.43
2018-01-02T07:44:58.592Z,42.83
2018-01-02T07:47:26.138Z,38.60
2018-01-02T07:49:53.731Z,47.27
2018-01-02T07:52:21.285Z,37.53
2018-01-02T07:54:48.817Z,36.43
2018-01-02T07:57:16.367Z,40.50
2018-01-02T07:59:43.938Z,48.30
2018-01-02T08:02:11.526Z,46.67
2018-01-02T08:04:39.172Z,45.33
2018-01-02T08:07:06.789Z,45.63
2018-01-02T08:09:34.314Z,40.40
2018-01-02T08:12:01.903Z,46.20
2018-01-02T08:14:29.523Z,45.17
2018-01-02T08:16:57.081Z,43.47
2018-01-02T08:19:24.801Z,49.83
2018-01-02T08:21:52.394Z,48.47
2018-01-02T08:24:19.910Z,52.97
2018-01-02T08:26:47.451Z,33.93
2018-01-02T08:29:15.030Z,33.63
2018-01-02T08:31:42.638Z,45.70
2018-01-02T08:34:10.247Z,29.33
2018-01-02T08:36:37.802Z,34.67
2018-01-02T08:39:05.413Z,29.77
2018-01-02T08:41:32.969Z,39.20
2018-01-02T08:44:00.490Z,40.57
2018-01-02T08:46:28.060Z,20.83
2018-01-02T08:48:55.894Z,34.57
2018-01-02T08:51:23.414Z,25.30
2018-01-02T08:53:50.939Z,30.43
2018-01-02T08:56:18.520Z,35.00
2018-01-02T08:58:46.090Z,29.37
2018-01-02T09:01:13.713Z,39.33
2018-01-02T09:03:42.241Z,23.20
2018-01-02T09:06:09.750Z,30.50
2018-01-02T09:08:37.345Z,32.17
2018-01-02T09:11:04.909Z,32.53
2018-01-02T09:13:38.138Z,23.97
2018-01-02T09:16:05.680Z,27.10
2018-01-02T09:18:34.674Z,29.73
2018-01-02T09:21:02.358Z,30.13
2018-01-02T09:23:29.948Z,21.37
2018-01-02T09:25:57.524Z,18.43
2018-01-02T09:28:25.077Z,19.57
2018-01-02T09:30:52.628Z,18.20
2018-01-02T09:33:20.234Z,26.87
2018-01-02T09:35:47.752Z,18.47
2018-01-02T09:38:15.338Z,32.07
2018-01-02T09:40:42.898Z,26.43
2018-01-02T09:43:10.445Z,27.80
2018-01-02T09:45:38.004Z,29.50
2018-01-02T09:48:05.574Z,22.67
2018-01-02T09:50:33.092Z,28.27
2018-01-02T09:53:00.618Z,32.87
2018-01-02T09:55:28.180Z,20.37
2018-01-02T09:57:55.727Z,22.23
2018-01-02T10:00:23.269Z,16.00
2018-01-02T10:02:50.885Z,20.13
2018-01-02T10:05:18.395Z,19.93
2018-01-02T10:07:45.929Z,26.80
2018-01-02T10:10:13.497Z,17.17
2018-01-02T10:12:41.048Z,24.80
2018-01-02T10:15:08.602Z,18.70
2018-01-02T10:17:36.413Z,30.80
2018-01-02T10:20:03.993Z,18.03
2018-01-02T10:22:31.506Z,10.60
2018-01-02T10:24:59.081Z,15.33
2018-01-02T10:27:26.592Z,12.93
2018-01-02T10:29:54.187Z,16.97
2018-01-02T10:32:21.705Z,19.53
2018-01-02T10:34:49.309Z,14.53
2018-01-02T10:37:16.994Z,12.57
2018-01-02T10:39:44.514Z,13.37
2018-01-02T10:42:12.063Z,10.27
2018-01-02T10:44:39.596Z,16.00
2018-01-02T10:47:07.198Z,12.77
2018-01-02T10:49:34.740Z,11.97
2018-01-02T10:52:02.276Z,16.00
2018-01-02T10:54:29.846Z,10.03
2018-01-02T10:56:57.417Z,12.73
2018-01-02T10:59:24.992Z,8.70
2018-01-02T11:01:52.496Z,14.07
2018-01-02T11:04:20.028Z,9.10
2018-01-02T11:06:47.874Z,7.77
2018-01-02T11:09:15.416Z,8.10
2018-01-02T11:11:48.507Z,9.03
2018-01-02T11:14:21.609Z,14.23
2018-01-02T11:16:49.197Z,11.73
2018-01-02T11:19:16.786Z,20.17
2018-01-02T11:21:44.333Z,15.50
2018-01-02T11:24:11.954Z,6.90
2018-01-02T11:26:39.507Z,12.57
2018-01-02T11:29:07.191Z,17.40
2018-01-02T11:31:34.863Z,8.90
2018-01-02T11:34:02.460Z,12.53
2018-01-02T11:36:29.976Z,10.80
2018-01-02T11:38:57.530Z,12.63
2018-01-02T11:41:25.128Z,13.70
2018-01-02T11:43:52.653Z,8.00
2018-01-02T11:46:20.385Z,14.73
2018-01-02T11:48:48.084Z,9.07
2018-01-02T11:51:15.637Z,10.17
2018-01-02T11:53:43.172Z,8.90
2018-01-02T11:56:10.768Z,15.13
2018-01-02T11:58:38.312Z,10.20
2018-01-02T12:01:05.865Z,8.13
2018-01-02T12:03:33.436Z,12.17
2018-01-02T12:06:00.989Z,14.53
2018-01-02T12:08:28.562Z,5.23
2018-01-02T12:10:56.153Z,14.13
2018-01-02T12:13:23.700Z,9.87
2018-01-02T12:15:51.244Z,16.40
2018-01-02T12:18:18.820Z,11.30
2018-01-02T12:20:46.425Z,8.13
2018-01-02T12:23:14.038Z,11.17
2018-01-02T12:25:41.576Z,10.37
2018-01-02T12:28:09.095Z,12.50
2018-01-02T12:30:36.692Z,13.67
2018-01-02T12:33:04.252Z,13.97
2018-01-02T12:35:31.870Z,8.43
2018-01-02T12:37:59.477Z,13.37
2018-01-02T12:40:26.989Z,9.40
2018-01-02T12:42:54.529Z,21.03
2018-01-02T12:45:22.197Z,13.60
2018-01-02T12:47:49.759Z,14.07
2018-01-02T12:50:17.326Z,17.93
2018-01-02T12:52:45.089Z,15.80
2018-01-02T12:55:12.653Z,16.30
2018-01-02T12:57:40.309Z,9.90
2018-01-02T13:00:07.896Z,13.80
2018-01-02T13:02:35.432Z,14.60
2018-01-02T13:05:03.007Z,11.17
2018-01-02T13:07:30.573Z,10.53
2018-01-02T13:09:58.101Z,17.70
2018-01-02T13:12:25.629Z,21.00
2018-01-02T13:14:53.201Z,12.70
2018-01-02T13:17:20.708Z,14.10
2018-01-02T13:19:48.276Z,25.57
2018-01-02T13:22:15.864Z,15.40
2018-01-02T13:24:43.413Z,13.93
2018-01-02T13:27:10.956Z,21.40
2018-01-02T13:29:38.532Z,15.20
2018-01-02T13:32:06.076Z,20.37
2018-01-02T13:34:33.632Z,15.90
2018-01-02T13:37:01.302Z,30.43
2018-01-02T13:39:28.869Z,5.80
2018-01-02T13:41:56.418Z,21.43
2018-01-02T13:44:24.020Z,19.07
2018-01-02T13:46:51.565Z,13.60
2018-01-02T13:49:19.146Z,18.80
2018-01-02T13:51:46.712Z,14.60
2018-01-02T13:54:14.233Z,10.80
2018-01-02T13:56:41.782Z,23.47
2018-01-02T13:59:09.405Z,15.33
2018-01-02T14:01:36.924Z,17.37
2018-01-02T14:04:04.500Z,12.40
2018-01-02T14:06:32.050Z,15.03
2018-01-02T14:08:59.627Z,20.43
2018-01-02T14:11:27.172Z,16.60
2018-01-02T14:13:54.714Z,14.23
2018-01-02T14:16:22.370Z,18.20
2018-01-02T14:18:49.918Z,15.77
2018-01-02T14:21:17.470Z,13.73
2018-01-02T14:23:45.068Z,13.03
2018-01-02T14:26:12.716Z,16.17
2018-01-02T14:28:40.290Z,15.20
2018-01-02T14:31:07.876Z,12.97
2018-01-02T14:33:35.399Z,16.33
2018-01-02T14:36:02.989Z,17.77
2018-01-02T14:38:30.494Z,9.87
2018-01-02T14:40:58.099Z,8.47
2018-01-02T14:43:25.746Z,13.00
2018-01-02T14:45:53.287Z,11.00
2018-01-02T14:48:20.833Z,15.83
2018-01-02T14:50:48.371Z,20.93
2018-01-02T14:53:15.897Z,14.20
2018-01-02T14:55:43.641Z,16.93
2018-01-02T14:58:11.181Z,14.53
2018-01-02T15:00:38.994Z,13.07
2018-01-02T15:03:06.663Z,25.20
2018-01-02T15:05:34.212Z,14.30
2018-01-02T15:08:01.792Z,15.80
2018-01-02T15:10:29.319Z,14.90
2018-01-02T15:12:56.889Z,20.83
2018-01-02T15:15:24.438Z,19.50
2018-01-02T15:17:52.025Z,14.03
2018-01-02T15:20:19.572Z,14.10
2018-01-02T15:22:47.117Z,11.50
2018-01-02T15:25:14.706Z,18.80
2018-01-02T15:27:42.222Z,17.93
2018-01-02T15:30:09.867Z,25.20
2018-01-02T15:32:37.439Z,23.27
2018-01-02T15:35:04.976Z,30.73
2018-01-02T15:37:32.587Z,20.50
2018-01-02T15:40:00.175Z,16.20
2018-01-02T15:42:27.836Z,20.13
2018-01-02T15:44:55.389Z,23.33
2018-01-02T15:47:23.022Z,22.10
2018-01-02T15:49:50.548Z,26.13
2018-01-02T15:52:18.096Z,14.20
2018-01-02T15:54:45.669Z,24.87
2018-01-02T15:57:13.213Z,20.80
2018-01-02T15:59:40.831Z,20.10
2018-01-02T16:02:08.418Z,18.57
2018-01-02T16:04:35.993Z,23.40
2018-01-02T16:07:03.536Z,21.00
2018-01-02T16:09:31.087Z,17.40
2018-01-02T16:11:58.714Z,19.83
2018-01-02T16:14:26.258Z,19.03
2018-01-02T16:16:53.800Z,23.30
2018-01-02T16:19:21.364Z,24.73
2018-01-02T16:21:48.907Z,31.77
2018-01-02T16:24:16.465Z,31.07
2018-01-02T16:26:44.036Z,35.33
2018-01-02T16:29:11.596Z,28.47
2018-01-02T16:31:39.118Z,26.80
2018-01-02T16:34:06.669Z,33.07
2018-01-02T16:36:34.216Z,28.47
2018-01-02T16:39:01.763Z,41.67
2018-01-02T16:41:29.303Z,48.87
2018-01-02T16:43:56.871Z,35.83
2018-01-02T16:46:24.458Z,32.13
2018-01-02T16:48:52.007Z,26.40
2018-01-02T16:51:19.577Z,41.33
2018-01-02T16:53:47.086Z,38.80
2018-01-02T16:56:14.643Z,34.40
2018-01-02T16:58:42.226Z,25.40
2018-01-02T17:01:09.768Z,35.10
2018-01-02T17:03:37.274Z,28.53
2018-01-02T17:06:04.853Z,22.00
2018-01-02T17:08:32.412Z,20.70
2018-01-02T17:11:00.055Z,27.27
2018-01-02T17:13:27.589Z,21.60
2018-01-02T17:15:55.190Z,22.90
2018-01-02T17:18:22.741Z,26.87
2018-01-02T17:20:50.259Z,18.33
2018-01-02T17:23:17.851Z,26.40
2018-01-02T17:25:45.378Z,24.87
2018-01-02T17:28:12.899Z,25.43
2018-01-02T17:30:40.496Z,23.03
2018-01-02T17:33:08.024Z,21.53
2018-01-02T17:35:35.553Z,24.53
2018-01-02T17:38:03.127Z,31.97
2018-01-02T17:40:30.934Z,20.30
2018-01-02T17:42:58.458Z,21.83
2018-01-02T17:45:26.089Z,18.00
2018-01-02T17:47:53.628Z,15.50
2018-01-02T17:50:21.270Z,28.93
2018-01-02T17:52:48.896Z,28.17
2018-01-02T17:55:16.414Z,17.13
2018-01-02T17:57:43.951Z,26.13
2018-01-02T18:00:11.592Z,24.53
2018-01-02T18:02:39.123Z,20.50
2018-01-02T18:05:06.630Z,15.53
2018-01-02T18:07:34.197Z,14.20
2018-01-02T18:10:01.753Z,21.83
2018-01-02T18:12:29.273Z,16.23
2018-01-02T18:14:56.883Z,30.50
2018-01-02T18:17:24.478Z,22.30
2018-01-02T18:19:52.040Z,24.90
2018-01-02T18:22:19.615Z,16.70
2018-01-02T18:24:47.180Z,14.53
2018-01-02T18:27:14.683Z,12.90
2018-01-02T18:29:42.303Z,14.50
2018-01-02T18:32:09.856Z,18.83
2018-01-02T18:34:37.406Z,18.40
2018-01-02T18:37:04.992Z,18.73
2018-01-02T18:39:32.542Z,30.57
2018-01-02T18:42:00.109Z,21.77
2018-01-02T18:44:27.936Z,25.10
2018-01-02T18:46:55.556Z,19.43
2018-01-02T18:49:23.101Z,25.43
2018-01-02T18:51:50.717Z,27.93
2018-01-02T18:54:18.345Z,23.43
2018-01-02T18:56:45.867Z,28.30
2018-01-02T18:59:13.464Z,19.53
2018-01-02T19:01:41.003Z,25.50
2018-01-02T19:04:08.564Z,20.17
2018-01-02T19:06:36.179Z,38.20
2018-01-02T19:09:03.802Z,18.60
2018-01-02T19:11:31.353Z,16.97
2018-01-02T19:13:58.915Z,21.37
2018-01-02T19:16:26.423Z,11.10
2018-01-02T19:18:53.927Z,23.33
2018-01-02T19:21:21.496Z,17.27
2018-01-02T19:23:49.207Z,23.13
2018-01-02T19:26:16.846Z,23.87
2018-01-02T19:28:44.385Z,26.07
2018-01-02T19:31:12.006Z,28.97
2018-01-02T19:33:39.810Z,21.27
2018-01-02T19:36:07.588Z,18.67
2018-01-02T19:38:35.189Z,15.47
2018-01-02T19:41:03.042Z,49.63
2018-01-02T19:43:30.811Z,61.33
2018-01-02T19:45:58.697Z,141.83
2018-01-02T19:48:26.571Z,159.73
2018-01-02T19:50:55.267Z,121.13
2018-01-02T19:53:23.007Z,175.43
2018-01-02T19:55:50.900Z,59.87
2018-01-02T19:58:18.819Z,102.83
2018-01-02T20:00:46.595Z,27.63
2018-01-02T20:03:14.571Z,46.70
2018-01-02T20:05:42.165Z,39.17
2018-01-02T20:08:09.769Z,25.97
2018-01-02T20:10:37.711Z,21.00
2018-01-02T20:13:05.568Z,28.13
2018-01-02T20:15:33.566Z,26.87
2018-01-02T20:18:01.423Z,27.77
2018-01-02T20:20:29.221Z,23.67
2018-01-02T20:22:57.114Z,22.00
2018-01-02T20:25:24.988Z,16.90
2018-01-02T20:27:52.871Z,29.57
2018-01-02T20:30:20.649Z,21.67
2018-01-02T20:32:48.286Z,24.50
2018-01-02T20:35:16.098Z,29.33
2018-01-02T20:37:43.686Z,56.53
2018-01-02T20:40:12.072Z,38.20
2018-01-02T20:42:39.593Z,29.93
2018-01-02T20:45:07.212Z,27.93
2018-01-02T20:47:34.844Z,20.90
2018-01-02T20:50:02.575Z,20.73
2018-01-02T20:52:30.224Z,35.90
2018-01-02T20:54:57.776Z,43.77
2018-01-02T20:57:25.338Z,36.73
2018-01-02T20:59:52.945Z,30.40
2018-01-02T21:02:20.647Z,73.50
2018-01-02T21:04:48.179Z,36.63
2018-01-02T21:07:15.738Z,40.00
2018-01-02T21:09:43.305Z,27.50
2018-01-02T21:12:10.921Z,27.93
2018-01-02T21:14:38.593Z,28.83
2018-01-02T21:17:06.125Z,28.53
2018-01-02T21:19:33.678Z,30.43
2018-01-02T21:22:01.252Z,28.10
2018-01-02T21:24:28.996Z,32.50
2018-01-02T21:26:56.775Z,37.17
2018-01-02T21:29:24.329Z,37.77
2018-01-02T21:31:52.024Z,26.23
2018-01-02T21:34:19.602Z,31.83
2018-01-02T21:36:47.115Z,26.90
2018-01-02T21:39:14.740Z,37.73
2018-01-02T21:41:42.348Z,33.80
2018-01-02T21:44:09.994Z,27.20
2018-01-02T21:46:37.516Z,27.77
2018-01-02T21:49:05.131Z,33.73
2018-01-02T21:51:32.706Z,37.93
2018-01-02T21:54:00.272Z,29.20
2018-01-02T21:56:27.811Z,27.43
2018-01-02T21:58:55.322Z,27.10
2018-01-02T22:01:22.912Z,36.17
2018-01-02T22:03:50.480Z,29.87
2018-01-02T22:06:18.005Z,29.40
2018-01-02T22:08:45.603Z,33.93
2018-01-02T22:11:13.161Z,31.47
2018-01-02T22:13:40.711Z,25.07
2018-01-02T22:16:08.314Z,25.03
2018-01-02T22:18:36.120Z,28.83
2018-01-02T22:21:03.677Z,36.23
2018-01-02T22:23:31.251Z,23.23
2018-01-02T22:25:58.821Z,22.90
2018-01-02T22:28:26.380Z,21.57
2018-01-02T22:30:53.928Z,19.50
2018-01-02T22:33:21.545Z,19.00
2018-01-02T22:35:49.060Z,18.03
2018-01-02T22:38:16.604Z,22.97
2018-01-02T22:40:44.164Z,23.43
2018-01-02T22:43:11.697Z,19.80
2018-01-02T22:45:39.227Z,10.40
2018-01-02T22:48:06.842Z,19.03
2018-01-02T22:50:34.379Z,14.63
2018-01-02T22:53:01.962Z,17.63
2018-01-02T22:55:29.503Z,13.97
2018-01-02T22:57:57.052Z,14.30
2018-01-02T23:00:24.595Z,15.50
2018-01-02T23:02:52.192Z,19.27
2018-01-02T23:05:19.741Z,15.00
2018-01-02T23:07:47.480Z,17.87
2018-01-02T23:10:15.011Z,13.40
2018-01-02T23:12:42.543Z,21.40
2018-01-02T23:15:10.125Z,19.10
2018-01-02T23:17:37.635Z,17.23
2018-01-02T23:20:05.445Z,17.50
2018-01-02T23:22:33.028Z,17.53
2018-01-02T23:25:00.788Z,15.03
2018-01-02T23:27:28.368Z,17.00
2018-01-02T23:29:55.880Z,14.03
2018-01-02T23:32:23.439Z,16.40
2018-01-02T23:34:50.983Z,17.10
2018-01-02T23:37:18.533Z,15.07
2018-01-02T23:39:46.124Z,20.20
2018-01-02T23:42:13.667Z,15.23
2018-01-02T23:44:41.192Z,20.40
2018-01-02T23:47:08.754Z,19.70
2018-01-02T23:49:36.263Z,14.60
2018-01-02T23:52:03.888Z,16.27
2018-01-02T23:54:31.530Z,15.67
2018-01-02T23:56:59.109Z,16.50
2018-01-02T23:59:26.619Z,17.30
